Midway, AR

4:20 AM CST on November 23, 2014 (GMT -0600)
Boone County | Change Station
CLOSE
Current Station
Airport
Location: Harrison,
Elevation: 1365 ft
Nearby Weather Stations

Elev 1365 ft 36.26 °N, 93.15 °W | Updated 27 minutes ago

Overcast
Overcast
56 °F
Feels Like 56 °F
N
13
Wind Variable Wind from SSE

Today
High -- | Low -- °F
--% Chance of Precip.
Yesterday
High -- | Low -- °F
Precip. -- in
6:54 AM 4:57 PM
New Moon, 1% visible
Pressure 29.66 in
Visibility 10.0 miles
Clouds Mostly Cloudy 2100 ft
Overcast 2800 ft
Dew Point 53 °F
Humidity 90%
Rainfall 0.00 in
Snow Depth Not available.
UV 0 out of 12
Pollen 1.50 out of 12
Air Quality Not available.
Flu Activity Not available.
METAR KHRO 230953Z AUTO 15011KT 10SM BKN021 OVC028 13/12 A2967 RMK AO2 SLP043 T01330117

More Conditions Fewer Conditions

Pressure 29.66 in
Visibility 10.0 miles
Clouds Mostly Cloudy 2100 ft
Overcast 2800 ft
Dew Point 53 °F
Humidity 90%
Rainfall 0.00 in
Snow Depth Not available.
UV 0 out of 12
Pollen 1.50 out of 12
Air Quality Not available.
Flu Activity Not available.
METAR KHRO 230953Z AUTO 15011KT 10SM BKN021 OVC028 13/12 A2967 RMK AO2 SLP043 T01330117

More Conditions Fewer Conditions

10-Day Weather Forecast

Almanac

Astronomy

Nov. 23, 2014 Rise Set
Actual Time
Civil Twilight
Nautical Twilight
Astronomical Twilight
Moon
Length of Visible Light
Length of Day
Tomorrow will be .
, % of the Moon is Illuminated

Today's Extremes

State Highs State Lows

Community

WunderPhotos

Upload Photos

1,773,030 photos uploaded!

WunderBlogs® & News

Nearby

Air Quality

  Air Quality AQ Index Pollutant
Not available.

Snow Depth

Station Depth Elevation

Earthquake Activity

City Distance Mag. Time & Date
Minimum magnitude displayed is 2.5.

Coastal Water Temperatures

Place Temperature

Nearby Weather Stations